Time;durP1;ratioP1;P1;durP2;ratioP2;P2;SDS_P1;SDS_P2;PMS_P1;PMS_P2;Temp;Humidity;BMP_temperature;BMP_pressure;BME280_temperature;BME280_humidity;BME280_pressure;Samples;Min_cycle;Max_cycle;Signal;HPM_P1;HPM_P2
2021/09/06 00:02:24;;;;;;;;;;;13.80;99.90;;;;;;5091104;28;19920;-78
2021/09/06 00:04:50;;;;;;;;;;;13.90;99.90;;;;;;5090391;28;20007;-77
2021/09/06 00:07:15;;;;;;;;;;;13.90;99.90;;;;;;5082686;28;19924;-78
2021/09/06 00:09:42;;;;;;;;;;;13.90;99.90;;;;;;5088588;28;19916;-76
2021/09/06 00:12:08;;;;;;;;;;;13.90;99.90;;;;;;5091314;28;20304;-75
2021/09/06 00:14:34;;;;;;;;;;;13.90;99.90;;;;;;5073083;28;19963;-79
2021/09/06 00:17:00;;;;;;;;;;;13.90;99.90;;;;;;5074387;28;19916;-78
2021/09/06 00:19:25;;;;;;;;;;;13.90;99.90;;;;;;5086388;28;19916;-78
2021/09/06 00:21:51;;;;;;;;;;;13.90;99.90;;;;;;5073505;28;20013;-75
2021/09/06 00:24:17;;;;;;;;;;;13.90;99.90;;;;;;5072718;28;19912;-75
2021/09/06 00:26:42;;;;;;;;;;;13.90;99.90;;;;;;5073290;28;19915;-77
2021/09/06 00:29:08;;;;;;;;;;;13.90;99.90;;;;;;5088818;28;20031;-78
2021/09/06 00:31:34;;;;;;;;;;;13.90;99.90;;;;;;5071833;28;20323;-75
2021/09/06 00:33:59;;;;;;;;;;;13.90;99.90;;;;;;5094381;28;19935;-77
2021/09/06 00:36:25;;;;;;;;;;;13.80;99.90;;;;;;5074850;28;19994;-75
2021/09/06 00:38:50;;;;;;;;;;;13.70;99.90;;;;;;5093842;28;20614;-77
2021/09/06 00:41:16;;;;;;;;;;;13.60;99.90;;;;;;5093753;28;19916;-76
2021/09/06 00:43:44;;;;;;;;;;;13.60;99.90;;;;;;5093719;28;19998;-77
2021/09/06 00:46:10;;;;;;;;;;;13.50;99.90;;;;;;5077172;28;19916;-77
2021/09/06 00:48:35;;;;;;;;;;;13.40;99.90;;;;;;5094860;28;20424;-75
2021/09/06 00:51:01;;;;;;;;;;;13.40;99.90;;;;;;5094646;28;19959;-75
2021/09/06 00:53:26;;;;;;;;;;;13.30;99.90;;;;;;5093398;28;19942;-75
2021/09/06 00:55:52;;;;;;;;;;;13.30;99.90;;;;;;5073551;28;19935;-75
2021/09/06 00:58:18;;;;;;;;;;;13.30;99.90;;;;;;5075794;28;19951;-75
2021/09/06 01:00:43;;;;;;;;;;;13.30;99.90;;;;;;5094416;28;19920;-75
2021/09/06 01:03:09;;;;;;;;;;;13.30;99.90;;;;;;5094472;28;20362;-75
2021/09/06 01:05:35;;;;;;;;;;;13.40;99.90;;;;;;5094313;28;19908;-75
2021/09/06 01:08:00;;;;;;;;;;;13.40;99.90;;;;;;5094553;28;19912;-77
2021/09/06 01:10:26;;;;;;;;;;;13.40;99.90;;;;;;5094556;28;19923;-75
2021/09/06 01:12:52;;;;;;;;;;;13.40;99.90;;;;;;5086166;28;19923;-75
2021/09/06 01:15:18;;;;;;;;;;;13.40;99.90;;;;;;5062316;28;19916;-78
2021/09/06 01:17:43;;;;;;;;;;;13.40;99.90;;;;;;5081932;28;19916;-75
2021/09/06 01:20:09;;;;;;;;;;;13.40;99.90;;;;;;5083609;28;19916;-76
2021/09/06 01:22:35;;;;;;;;;;;13.40;99.90;;;;;;5066687;28;19916;-75
2021/09/06 01:25:01;;;;;;;;;;;13.30;99.90;;;;;;5088087;28;20353;-78
2021/09/06 01:27:27;;;;;;;;;;;13.20;99.90;;;;;;5088731;28;19965;-76
2021/09/06 01:29:52;;;;;;;;;;;13.20;99.90;;;;;;5092304;28;19916;-76
2021/09/06 01:32:18;;;;;;;;;;;13.10;99.90;;;;;;5093827;28;19916;-75
2021/09/06 01:34:44;;;;;;;;;;;13.10;99.90;;;;;;5075877;28;19928;-78
2021/09/06 01:37:09;;;;;;;;;;;13.00;99.90;;;;;;5092413;28;19912;-75
2021/09/06 01:39:35;;;;;;;;;;;13.00;99.90;;;;;;5088741;28;19954;-76
2021/09/06 01:42:00;;;;;;;;;;;12.90;99.90;;;;;;5089231;28;19916;-76
2021/09/06 01:44:26;;;;;;;;;;;12.90;99.90;;;;;;5094668;28;19916;-74
2021/09/06 01:46:52;;;;;;;;;;;12.80;99.90;;;;;;5090835;28;19920;-75
2021/09/06 01:49:17;;;;;;;;;;;12.80;99.90;;;;;;5092017;28;19908;-76
2021/09/06 01:51:43;;;;;;;;;;;12.70;99.90;;;;;;5093325;28;20184;-76
2021/09/06 01:54:09;;;;;;;;;;;12.70;99.90;;;;;;5097728;28;19916;-77
2021/09/06 01:56:35;;;;;;;;;;;12.70;99.90;;;;;;5095863;28;19919;-76
2021/09/06 01:59:01;;;;;;;;;;;12.70;99.90;;;;;;5095551;28;19962;-78
2021/09/06 02:01:26;;;;;;;;;;;12.70;99.90;;;;;;5077875;28;20017;-77
2021/09/06 02:03:52;;;;;;;;;;;12.70;99.90;;;;;;5097076;28;19912;-76
2021/09/06 02:06:18;;;;;;;;;;;12.80;99.90;;;;;;5095924;28;20432;-74
2021/09/06 02:08:43;;;;;;;;;;;12.80;99.90;;;;;;5091690;28;19955;-76
2021/09/06 02:11:09;;;;;;;;;;;12.80;99.90;;;;;;5093039;28;19916;-75
2021/09/06 02:13:35;;;;;;;;;;;12.80;99.90;;;;;;5069254;28;20314;-78
2021/09/06 02:16:01;;;;;;;;;;;12.80;99.90;;;;;;5086948;28;20312;-75
2021/09/06 02:18:26;;;;;;;;;;;12.90;99.90;;;;;;5088285;28;19919;-75
2021/09/06 02:20:52;;;;;;;;;;;12.90;99.90;;;;;;5088493;28;19916;-75
2021/09/06 02:23:18;;;;;;;;;;;12.80;99.90;;;;;;5087744;28;20595;-76
2021/09/06 02:25:43;;;;;;;;;;;12.70;99.90;;;;;;5069590;28;19935;-74
2021/09/06 02:28:09;;;;;;;;;;;12.60;99.90;;;;;;5089118;28;20374;-75
2021/09/06 02:30:35;;;;;;;;;;;12.50;99.90;;;;;;5086421;28;19981;-77
2021/09/06 02:33:00;;;;;;;;;;;12.50;99.90;;;;;;5087368;28;20326;-78
2021/09/06 02:35:26;;;;;;;;;;;12.40;99.90;;;;;;5088191;28;19942;-75
2021/09/06 02:37:51;;;;;;;;;;;12.40;99.90;;;;;;5088267;28;19916;-76
2021/09/06 02:40:17;;;;;;;;;;;12.50;99.90;;;;;;5073330;28;20304;-75
2021/09/06 02:42:44;;;;;;;;;;;12.50;99.90;;;;;;5072400;28;20372;-76
2021/09/06 02:45:10;;;;;;;;;;;12.50;99.90;;;;;;5094809;28;20048;-76
2021/09/06 02:47:36;;;;;;;;;;;12.40;99.90;;;;;;5074537;28;20007;-75
2021/09/06 02:50:04;;;;;;;;;;;12.40;99.90;;;;;;5093358;28;19912;-75
2021/09/06 02:52:30;;;;;;;;;;;12.40;99.90;;;;;;5091438;28;19915;-77
2021/09/06 02:54:55;;;;;;;;;;;12.40;99.90;;;;;;5091935;28;20232;-74
2021/09/06 02:57:21;;;;;;;;;;;12.40;99.90;;;;;;5089962;28;19926;-75
2021/09/06 02:59:47;;;;;;;;;;;12.50;99.90;;;;;;5087941;28;19971;-75
2021/09/06 03:02:12;;;;;;;;;;;12.50;99.90;;;;;;5091592;28;19920;-75
2021/09/06 03:04:38;;;;;;;;;;;12.60;99.90;;;;;;5091634;28;19912;-75
2021/09/06 03:07:03;;;;;;;;;;;12.60;99.90;;;;;;5090248;28;19920;-76
2021/09/06 03:09:29;;;;;;;;;;;12.70;99.90;;;;;;5088990;28;19923;-78
2021/09/06 03:11:54;;;;;;;;;;;12.70;99.90;;;;;;5073705;28;20002;-75
2021/09/06 03:14:20;;;;;;;;;;;12.70;99.90;;;;;;5071065;28;19927;-75
2021/09/06 03:16:45;;;;;;;;;;;12.70;99.90;;;;;;5087870;28;19923;-76
2021/09/06 03:19:11;;;;;;;;;;;12.70;99.90;;;;;;5087432;28;19956;-77
2021/09/06 03:21:37;;;;;;;;;;;12.60;99.90;;;;;;5071304;28;19919;-77
2021/09/06 03:24:02;;;;;;;;;;;12.60;99.90;;;;;;5071784;28;19913;-77
2021/09/06 03:26:28;;;;;;;;;;;12.50;99.90;;;;;;5087717;28;19912;-74
2021/09/06 03:28:54;;;;;;;;;;;12.40;99.90;;;;;;5091286;28;19923;-75
2021/09/06 03:31:19;;;;;;;;;;;12.30;99.90;;;;;;5089171;28;19965;-76
2021/09/06 03:33:45;;;;;;;;;;;12.40;99.90;;;;;;5087313;28;19993;-74
2021/09/06 03:36:11;;;;;;;;;;;12.40;99.90;;;;;;5088947;28;19917;-77
2021/09/06 03:38:36;;;;;;;;;;;12.30;99.90;;;;;;5070906;28;19916;-75
2021/09/06 03:41:02;;;;;;;;;;;12.30;99.90;;;;;;5088813;28;19916;-76
2021/09/06 03:43:28;;;;;;;;;;;12.40;99.90;;;;;;5086929;28;20386;-75
2021/09/06 03:45:53;;;;;;;;;;;12.30;99.90;;;;;;5089594;28;19916;-76
2021/09/06 03:48:19;;;;;;;;;;;12.40;99.90;;;;;;5096389;28;19919;-75
2021/09/06 03:50:45;;;;;;;;;;;12.30;99.90;;;;;;5076998;28;20234;-75
2021/09/06 03:53:11;;;;;;;;;;;12.20;99.90;;;;;;5075434;28;19916;-76
2021/09/06 03:55:37;;;;;;;;;;;12.20;99.90;;;;;;5085142;28;19916;-76
2021/09/06 03:58:03;;;;;;;;;;;12.30;99.90;;;;;;5067666;28;19974;-77
2021/09/06 04:00:28;;;;;;;;;;;12.20;99.90;;;;;;5093678;28;19930;-75
2021/09/06 04:02:54;;;;;;;;;;;12.10;99.90;;;;;;5094322;28;19922;-75
2021/09/06 04:05:19;;;;;;;;;;;12.10;99.90;;;;;;5077617;28;19914;-75
2021/09/06 04:07:45;;;;;;;;;;;12.10;99.90;;;;;;5091085;28;20265;-77
2021/09/06 04:10:11;;;;;;;;;;;12.20;99.90;;;;;;5076700;28;19938;-75
2021/09/06 04:12:37;;;;;;;;;;;12.30;99.90;;;;;;5094749;28;19973;-75
2021/09/06 04:15:04;;;;;;;;;;;12.30;99.90;;;;;;5075455;28;20219;-75
2021/09/06 04:17:29;;;;;;;;;;;12.30;99.90;;;;;;5069422;28;20211;-75
2021/09/06 04:19:55;;;;;;;;;;;12.30;99.90;;;;;;5067379;28;19916;-77
2021/09/06 04:22:21;;;;;;;;;;;12.30;99.90;;;;;;5075531;28;19965;-76
2021/09/06 04:24:46;;;;;;;;;;;12.30;99.90;;;;;;5075115;28;19920;-75
2021/09/06 04:27:12;;;;;;;;;;;12.20;99.90;;;;;;5075720;28;20353;-77
2021/09/06 04:29:37;;;;;;;;;;;12.10;99.90;;;;;;5063757;28;19916;-75
2021/09/06 04:32:03;;;;;;;;;;;12.00;99.90;;;;;;5076471;28;19925;-75
2021/09/06 04:34:29;;;;;;;;;;;11.90;99.90;;;;;;5093750;28;19919;-75
2021/09/06 04:36:54;;;;;;;;;;;11.80;99.90;;;;;;5094167;28;19923;-77
2021/09/06 04:39:20;;;;;;;;;;;11.80;99.90;;;;;;5094357;28;19912;-76
2021/09/06 04:41:45;;;;;;;;;;;11.80;99.90;;;;;;5094170;28;19923;-74
2021/09/06 04:44:11;;;;;;;;;;;11.80;99.90;;;;;;5093996;28;19957;-75
2021/09/06 04:46:37;;;;;;;;;;;11.80;99.90;;;;;;5092600;28;20675;-77
2021/09/06 04:49:04;;;;;;;;;;;11.80;99.90;;;;;;5090054;28;19916;-76
2021/09/06 04:51:29;;;;;;;;;;;11.90;99.90;;;;;;5075911;28;19969;-74
2021/09/06 04:53:55;;;;;;;;;;;12.00;99.90;;;;;;5083205;28;19916;-76
2021/09/06 04:56:22;;;;;;;;;;;12.00;99.90;;;;;;5077064;28;19912;-77
2021/09/06 04:58:48;;;;;;;;;;;12.00;99.90;;;;;;5075187;28;19916;-74
2021/09/06 05:01:14;;;;;;;;;;;11.90;99.90;;;;;;5091967;28;19924;-75
2021/09/06 05:03:39;;;;;;;;;;;11.80;99.90;;;;;;5072527;28;19912;-77
2021/09/06 05:06:05;;;;;;;;;;;11.80;99.90;;;;;;5087897;28;19912;-76
2021/09/06 05:08:30;;;;;;;;;;;11.80;99.90;;;;;;5093662;28;19961;-76
2021/09/06 05:10:56;;;;;;;;;;;11.80;99.90;;;;;;5075952;28;19998;-75
2021/09/06 05:13:22;;;;;;;;;;;11.80;99.90;;;;;;5093205;28;19913;-75
2021/09/06 05:15:48;;;;;;;;;;;11.70;99.90;;;;;;5076568;28;20340;-75
2021/09/06 05:18:13;;;;;;;;;;;11.70;99.90;;;;;;5094113;28;19916;-77
2021/09/06 05:20:39;;;;;;;;;;;11.70;99.90;;;;;;5094467;28;20203;-75
2021/09/06 05:23:05;;;;;;;;;;;11.70;99.90;;;;;;5094298;28;19962;-77
2021/09/06 05:25:31;;;;;;;;;;;11.70;99.90;;;;;;5077113;28;19912;-75
2021/09/06 05:27:56;;;;;;;;;;;11.90;99.90;;;;;;5076009;28;20025;-75
2021/09/06 05:30:22;;;;;;;;;;;11.90;99.90;;;;;;5094485;28;19912;-74
2021/09/06 05:32:48;;;;;;;;;;;12.00;99.90;;;;;;5074533;28;19931;-78
2021/09/06 05:35:13;;;;;;;;;;;12.00;99.90;;;;;;5092406;28;19911;-75
2021/09/06 05:37:39;;;;;;;;;;;12.00;99.90;;;;;;5076790;28;20315;-75
2021/09/06 05:40:05;;;;;;;;;;;12.00;99.90;;;;;;5094534;28;19908;-75
2021/09/06 05:42:31;;;;;;;;;;;11.90;99.90;;;;;;5075539;28;19908;-77
2021/09/06 05:44:57;;;;;;;;;;;11.90;99.90;;;;;;5093573;28;19923;-75
2021/09/06 05:47:22;;;;;;;;;;;11.90;99.90;;;;;;5090281;28;20295;-75
2021/09/06 05:49:48;;;;;;;;;;;11.90;99.90;;;;;;5093703;28;20218;-75
2021/09/06 05:52:13;;;;;;;;;;;11.80;99.90;;;;;;5092436;28;19916;-76
2021/09/06 05:54:39;;;;;;;;;;;11.80;99.90;;;;;;5094107;28;19972;-78
2021/09/06 05:57:04;;;;;;;;;;;11.80;99.90;;;;;;5094104;28;19920;-76
2021/09/06 05:59:30;;;;;;;;;;;11.80;99.90;;;;;;5091978;28;20002;-75
2021/09/06 06:01:56;;;;;;;;;;;11.80;99.90;;;;;;5087396;28;19962;-76
2021/09/06 06:04:22;;;;;;;;;;;11.80;99.90;;;;;;5070858;28;20249;-75
2021/09/06 06:06:47;;;;;;;;;;;11.80;99.90;;;;;;5064057;28;19919;-77
2021/09/06 06:09:13;;;;;;;;;;;12.00;99.90;;;;;;5090008;28;19966;-75
2021/09/06 06:11:40;;;;;;;;;;;12.00;99.90;;;;;;5093644;28;20045;-75
2021/09/06 06:14:06;;;;;;;;;;;12.00;99.90;;;;;;5086923;28;19920;-75
2021/09/06 06:16:32;;;;;;;;;;;12.10;99.90;;;;;;5087158;28;19917;-76
2021/09/06 06:18:57;;;;;;;;;;;12.20;99.90;;;;;;5092811;28;19912;-77
2021/09/06 06:21:23;;;;;;;;;;;12.30;99.90;;;;;;5074395;28;19973;-75
2021/09/06 06:23:49;;;;;;;;;;;12.30;99.90;;;;;;5091638;28;19930;-75
2021/09/06 06:26:15;;;;;;;;;;;12.50;99.90;;;;;;5086660;28;19912;-76
2021/09/06 06:28:40;;;;;;;;;;;12.60;99.90;;;;;;5069456;28;20319;-78
2021/09/06 06:31:06;;;;;;;;;;;12.80;99.90;;;;;;5077116;28;20294;-76
2021/09/06 06:33:31;;;;;;;;;;;12.90;99.90;;;;;;5078105;28;19973;-75
2021/09/06 06:36:01;;;;;;;;;;;13.00;99.90;;;;;;5076968;28;19943;-75
2021/09/06 06:38:27;;;;;;;;;;;13.10;99.90;;;;;;5075715;28;19938;-75
2021/09/06 06:40:53;;;;;;;;;;;13.30;99.90;;;;;;5096437;28;19957;-74
2021/09/06 06:43:18;;;;;;;;;;;13.40;99.90;;;;;;5072882;28;20230;-75
2021/09/06 06:45:44;;;;;;;;;;;13.60;99.90;;;;;;5096556;28;19981;-75
2021/09/06 06:48:10;;;;;;;;;;;13.80;99.90;;;;;;5079628;28;19959;-75
2021/09/06 06:50:35;;;;;;;;;;;13.90;99.90;;;;;;5095055;28;19923;-76
2021/09/06 06:53:01;;;;;;;;;;;14.20;99.90;;;;;;5091581;28;19952;-76
2021/09/06 06:55:26;;;;;;;;;;;14.40;99.90;;;;;;5087761;28;19965;-77
2021/09/06 06:57:52;;;;;;;;;;;14.50;99.90;;;;;;5086709;28;19936;-76
2021/09/06 07:00:18;;;;;;;;;;;14.70;99.90;;;;;;5090032;28;19920;-76
2021/09/06 07:02:43;;;;;;;;;;;14.90;99.90;;;;;;5087842;28;20489;-78
2021/09/06 07:05:09;;;;;;;;;;;15.10;99.90;;;;;;5088380;28;19920;-78
2021/09/06 07:07:35;;;;;;;;;;;15.30;99.90;;;;;;5085515;28;19919;-76
2021/09/06 07:10:00;;;;;;;;;;;15.40;99.90;;;;;;5072079;28;19942;-75
2021/09/06 07:12:26;;;;;;;;;;;15.60;99.90;;;;;;5073020;28;19927;-74
2021/09/06 07:14:52;;;;;;;;;;;15.80;99.90;;;;;;5089073;28;19916;-76
2021/09/06 07:17:17;;;;;;;;;;;16.00;99.90;;;;;;5090938;28;19920;-78
2021/09/06 07:19:43;;;;;;;;;;;16.10;99.90;;;;;;5091939;28;19919;-76
2021/09/06 07:22:08;;;;;;;;;;;16.30;99.90;;;;;;5089486;28;20385;-76
2021/09/06 07:24:34;;;;;;;;;;;16.40;99.90;;;;;;5088334;28;19916;-76
2021/09/06 07:26:59;;;;;;;;;;;16.60;99.90;;;;;;5091058;28;20204;-78
2021/09/06 07:29:25;;;;;;;;;;;16.80;99.90;;;;;;5073837;28;19919;-77
2021/09/06 07:31:51;;;;;;;;;;;17.10;99.90;;;;;;5095313;28;20218;-76
2021/09/06 07:34:16;;;;;;;;;;;17.30;99.90;;;;;;5092692;28;19934;-78
2021/09/06 07:36:42;;;;;;;;;;;17.50;99.90;;;;;;5090923;28;19923;-79
2021/09/06 07:39:07;;;;;;;;;;;17.60;99.90;;;;;;5091503;28;19920;-78
2021/09/06 07:41:33;;;;;;;;;;;17.60;99.90;;;;;;5081691;28;19923;-78
2021/09/06 07:43:58;;;;;;;;;;;17.60;99.90;;;;;;5079917;28;19916;-78
2021/09/06 07:46:24;;;;;;;;;;;17.70;99.90;;;;;;5091926;28;19961;-77
2021/09/06 07:48:52;;;;;;;;;;;17.80;99.90;;;;;;5091454;28;20354;-78
2021/09/06 07:51:18;;;;;;;;;;;18.00;99.90;;;;;;5070177;28;20311;-78
2021/09/06 07:53:45;;;;;;;;;;;18.10;99.90;;;;;;5090815;28;19935;-78
2021/09/06 07:56:10;;;;;;;;;;;18.20;99.90;;;;;;5087028;28;19912;-79
2021/09/06 07:58:36;;;;;;;;;;;18.20;99.90;;;;;;5089686;28;19920;-79
2021/09/06 08:01:01;;;;;;;;;;;18.20;99.90;;;;;;5090262;28;19926;-78
2021/09/06 08:03:27;;;;;;;;;;;18.30;99.90;;;;;;5091248;28;19939;-79
2021/09/06 08:05:52;;;;;;;;;;;18.40;99.90;;;;;;5068379;28;19923;-78
2021/09/06 08:08:19;;;;;;;;;;;18.60;99.90;;;;;;5086224;28;19920;-80
2021/09/06 08:10:45;;;;;;;;;;;18.70;99.90;;;;;;5091323;28;19915;-79
2021/09/06 08:13:10;;;;;;;;;;;18.80;99.90;;;;;;5094561;28;19926;-79
2021/09/06 08:15:36;;;;;;;;;;;19.00;99.90;;;;;;5077455;28;19912;-80
2021/09/06 08:18:03;;;;;;;;;;;19.20;99.90;;;;;;5089181;28;19927;-78
2021/09/06 08:20:29;;;;;;;;;;;19.20;99.90;;;;;;5072901;28;19916;-79
2021/09/06 08:22:55;;;;;;;;;;;19.40;99.90;;;;;;5088696;28;20219;-79
2021/09/06 08:25:20;;;;;;;;;;;19.40;99.90;;;;;;5086452;28;19920;-80
2021/09/06 08:27:46;;;;;;;;;;;19.60;99.90;;;;;;5087142;28;20007;-79
2021/09/06 08:30:12;;;;;;;;;;;19.70;99.90;;;;;;5088071;28;19919;-80
2021/09/06 08:32:39;;;;;;;;;;;19.80;99.90;;;;;;5072307;28;19920;-81
2021/09/06 08:35:05;;;;;;;;;;;19.90;99.90;;;;;;5087900;28;20019;-80
2021/09/06 08:37:31;;;;;;;;;;;20.20;99.90;;;;;;5089616;28;19912;-80
2021/09/06 08:39:56;;;;;;;;;;;20.40;99.90;;;;;;5092964;28;19919;-77
2021/09/06 08:42:22;;;;;;;;;;;20.50;99.90;;;;;;5093497;28;19970;-81
2021/09/06 08:44:48;;;;;;;;;;;20.60;99.90;;;;;;5090355;28;19957;-80
2021/09/06 08:47:14;;;;;;;;;;;20.80;99.90;;;;;;5089136;28;19916;-80
2021/09/06 08:49:40;;;;;;;;;;;21.00;99.90;;;;;;5067994;28;19912;-80
2021/09/06 08:52:06;;;;;;;;;;;21.00;99.90;;;;;;5070101;28;19938;-80
2021/09/06 08:54:32;;;;;;;;;;;21.10;99.90;;;;;;5089310;28;20017;-81
2021/09/06 08:56:57;;;;;;;;;;;21.00;99.90;;;;;;5092411;28;19938;-80
2021/09/06 08:59:23;;;;;;;;;;;20.90;99.90;;;;;;5073686;28;19920;-80
2021/09/06 09:01:51;;;;;;;;;;;20.80;99.90;;;;;;5091151;28;19942;-79
2021/09/06 09:04:17;;;;;;;;;;;20.80;99.90;;;;;;5072316;28;19973;-74
2021/09/06 09:06:42;;;;;;;;;;;20.80;99.90;;;;;;5089534;28;19924;-80
2021/09/06 09:09:08;;;;;;;;;;;20.80;99.90;;;;;;5089583;28;20285;-80
2021/09/06 09:11:34;;;;;;;;;;;20.90;99.90;;;;;;5089807;28;19916;-81
2021/09/06 09:14:12;;;;;;;;;;;20.90;99.90;;;;;;5090678;28;19924;-81
2021/09/06 09:16:38;;;;;;;;;;;20.90;99.90;;;;;;5071844;28;20022;-81
2021/09/06 09:19:05;;;;;;;;;;;21.00;99.90;;;;;;5069269;28;20007;-81
2021/09/06 09:21:30;;;;;;;;;;;20.90;99.90;;;;;;5091024;28;19998;-81
2021/09/06 09:24:01;;;;;;;;;;;21.00;99.90;;;;;;5090513;28;20007;-82
2021/09/06 09:26:28;;;;;;;;;;;21.00;99.90;;;;;;5069031;28;20283;-79
2021/09/06 09:28:53;;;;;;;;;;;20.90;99.90;;;;;;5090079;28;20333;-81
2021/09/06 09:31:20;;;;;;;;;;;20.90;99.90;;;;;;5092319;28;19916;-80
2021/09/06 09:33:47;;;;;;;;;;;21.00;99.90;;;;;;5087704;28;19923;-81
2021/09/06 09:36:13;;;;;;;;;;;21.00;99.90;;;;;;5069521;28;19916;-82
2021/09/06 09:38:39;;;;;;;;;;;20.90;99.90;;;;;;5072613;28;20214;-83
2021/09/06 09:41:13;;;;;;;;;;;20.90;99.90;;;;;;5071447;28;19912;-82
2021/09/06 09:43:39;;;;;;;;;;;20.90;99.90;;;;;;5069783;28;19923;-82
2021/09/06 09:46:05;;;;;;;;;;;20.90;99.90;;;;;;5069896;28;19927;-82
2021/09/06 09:48:31;;;;;;;;;;;20.90;99.90;;;;;;5071313;28;20656;-81
2021/09/06 09:50:56;;;;;;;;;;;20.90;99.90;;;;;;5071750;28;20022;-82
2021/09/06 09:53:23;;;;;;;;;;;20.80;99.90;;;;;;5086325;28;19931;-83
2021/09/06 09:55:48;;;;;;;;;;;20.90;99.90;;;;;;5071619;28;20219;-80
2021/09/06 09:58:16;;;;;;;;;;;21.00;99.90;;;;;;5090055;28;19946;-81
2021/09/06 10:00:47;;;;;;;;;;;21.10;99.90;;;;;;5094478;28;19920;-81
2021/09/06 10:03:13;;;;;;;;;;;21.10;99.90;;;;;;5094333;28;19977;-82
2021/09/06 10:05:39;;;;;;;;;;;21.10;99.90;;;;;;5096636;28;19916;-82
2021/09/06 10:08:08;;;;;;;;;;;21.10;99.90;;;;;;5097850;28;20248;-81
2021/09/06 10:10:38;;;;;;;;;;;21.10;99.90;;;;;;5098356;28;20008;-83
2021/09/06 10:13:04;;;;;;;;;;;21.30;99.90;;;;;;5097600;28;20195;-81
2021/09/06 10:15:29;;;;;;;;;;;21.20;99.90;;;;;;5098280;28;19908;-82
2021/09/06 10:17:55;;;;;;;;;;;21.20;99.90;;;;;;5096896;28;19962;-81
2021/09/06 10:20:22;;;;;;;;;;;21.00;99.90;;;;;;5096258;28;19986;-79
2021/09/06 10:22:59;;;;;;;;;;;20.90;99.90;;;;;;5078076;28;19908;-81
2021/09/06 10:25:27;;;;;;;;;;;20.80;99.90;;;;;;5079323;28;20218;-81
2021/09/06 10:27:54;;;;;;;;;;;20.70;99.90;;;;;;5078542;28;19912;-82
2021/09/06 10:30:20;;;;;;;;;;;20.60;99.90;;;;;;5094897;28;19935;-82
2021/09/06 10:32:47;;;;;;;;;;;20.70;99.90;;;;;;5079280;28;20211;-82
2021/09/06 10:35:22;;;;;;;;;;;20.80;99.90;;;;;;5078715;28;19923;-82
2021/09/06 10:37:59;;;;;;;;;;;20.90;99.90;;;;;;5094091;28;19957;-82
2021/09/06 10:40:26;;;;;;;;;;;21.00;99.90;;;;;;5097255;28;20020;-82
2021/09/06 10:42:51;;;;;;;;;;;21.10;99.90;;;;;;5069035;28;19916;-83
2021/09/06 10:45:17;;;;;;;;;;;21.20;99.90;;;;;;5078953;28;20421;-80
2021/09/06 10:47:43;;;;;;;;;;;21.20;99.90;;;;;;5091009;28;19916;-82
2021/09/06 10:50:12;;;;;;;;;;;21.20;99.90;;;;;;5086756;28;19927;-80
2021/09/06 10:52:40;;;;;;;;;;;21.20;99.90;;;;;;5084881;28;20002;-82
2021/09/06 10:55:06;;;;;;;;;;;21.10;99.90;;;;;;5082991;28;19920;-83
2021/09/06 10:57:35;;;;;;;;;;;21.10;99.90;;;;;;5086023;28;19923;-81
2021/09/06 11:00:00;;;;;;;;;;;21.10;99.90;;;;;;5084691;28;20374;-81
2021/09/06 11:02:27;;;;;;;;;;;21.20;99.90;;;;;;5081591;28;20621;-82
2021/09/06 11:04:53;;;;;;;;;;;21.30;99.90;;;;;;5085836;28;19916;-81
2021/09/06 11:07:19;;;;;;;;;;;21.30;99.90;;;;;;5084558;28;19927;-82
2021/09/06 11:09:45;;;;;;;;;;;21.30;99.90;;;;;;5088516;28;19913;-83
2021/09/06 11:12:11;;;;;;;;;;;21.40;99.90;;;;;;5088483;28;19912;-83
2021/09/06 11:14:37;;;;;;;;;;;21.50;99.90;;;;;;5092691;28;20007;-77
2021/09/06 11:17:13;;;;;;;;;;;21.60;99.90;;;;;;5090953;28;20018;-83
2021/09/06 11:19:39;;;;;;;;;;;21.60;99.90;;;;;;5086043;28;19935;-83
2021/09/06 11:22:06;;;;;;;;;;;21.60;99.90;;;;;;5089540;28;20307;-83
2021/09/06 11:24:32;;;;;;;;;;;21.50;99.90;;;;;;5087885;28;19923;-83
2021/09/06 11:26:58;;;;;;;;;;;21.60;99.90;;;;;;5088487;28;20306;-83
2021/09/06 11:29:23;;;;;;;;;;;21.60;99.90;;;;;;5075998;28;20249;-83
2021/09/06 11:31:49;;;;;;;;;;;21.70;99.90;;;;;;5085577;28;19931;-83
2021/09/06 11:34:15;;;;;;;;;;;21.60;99.90;;;;;;5091177;28;20231;-82
2021/09/06 11:36:41;;;;;;;;;;;21.70;99.90;;;;;;5087270;28;20270;-83
2021/09/06 11:39:07;;;;;;;;;;;21.80;99.90;;;;;;5087624;28;19927;-83
2021/09/06 11:41:35;;;;;;;;;;;21.80;99.90;;;;;;5089559;28;19920;-79
2021/09/06 11:44:01;;;;;;;;;;;21.90;99.90;;;;;;5071427;28;19920;-82
2021/09/06 11:46:27;;;;;;;;;;;22.10;99.90;;;;;;5070948;28;19920;-77
2021/09/06 11:48:52;;;;;;;;;;;22.10;99.90;;;;;;5090673;28;19912;-83
2021/09/06 11:51:45;;;;;;;;;;;22.10;99.90;;;;;;5092412;28;20230;-82
2021/09/06 11:54:12;;;;;;;;;;;22.10;99.90;;;;;;5068154;28;19931;-83
2021/09/06 11:56:38;;;;;;;;;;;22.20;99.90;;;;;;5089829;28;20295;-75
2021/09/06 11:59:03;;;;;;;;;;;22.30;99.90;;;;;;5085133;28;19916;-82
2021/09/06 12:01:29;;;;;;;;;;;22.20;99.90;;;;;;5084118;28;19928;-76
2021/09/06 12:04:08;;;;;;;;;;;22.20;99.90;;;;;;5060884;28;20022;-81
2021/09/06 12:06:34;;;;;;;;;;;22.20;99.90;;;;;;5076378;28;20462;-83
2021/09/06 12:09:00;;;;;;;;;;;22.20;99.90;;;;;;5058375;28;19920;-80
2021/09/06 12:11:46;;;;;;;;;;;22.20;99.90;;;;;;5076216;28;20386;-82
2021/09/06 12:14:12;;;;;;;;;;;22.20;99.90;;;;;;5059312;28;19925;-82
2021/09/06 12:16:38;;;;;;;;;;;22.10;99.90;;;;;;5077306;28;20255;-82
2021/09/06 12:19:20;;;;;;;;;;;22.00;99.90;;;;;;5062585;28;19920;-82
2021/09/06 12:21:46;;;;;;;;;;;22.00;99.90;;;;;;5080189;28;20043;-82
2021/09/06 12:24:11;;;;;;;;;;;21.90;99.90;;;;;;5080692;28;20193;-82
2021/09/06 12:26:38;;;;;;;;;;;21.90;99.90;;;;;;5076206;28;19966;-76
2021/09/06 12:29:04;;;;;;;;;;;21.90;99.90;;;;;;5081142;28;19920;-83
2021/09/06 12:31:38;;;;;;;;;;;21.90;99.90;;;;;;5076611;28;19916;-83
2021/09/06 12:34:04;;;;;;;;;;;21.90;99.90;;;;;;5063292;28;19947;-83
2021/09/06 12:36:29;;;;;;;;;;;21.90;99.90;;;;;;5064726;28;19964;-84
2021/09/06 12:38:55;;;;;;;;;;;21.90;99.90;;;;;;5081478;28;19958;-79
2021/09/06 12:41:21;;;;;;;;;;;21.90;99.90;;;;;;5065182;28;20345;-83
2021/09/06 12:43:46;;;;;;;;;;;21.90;99.90;;;;;;5068259;28;20467;-84
2021/09/06 12:46:12;;;;;;;;;;;21.90;99.90;;;;;;5077954;28;19950;-84
2021/09/06 12:48:37;;;;;;;;;;;21.90;99.90;;;;;;5081579;28;20310;-83
2021/09/06 12:51:03;;;;;;;;;;;21.80;99.90;;;;;;5059061;28;20286;-84
2021/09/06 12:53:29;;;;;;;;;;;21.80;99.90;;;;;;5079460;28;20294;-84
2021/09/06 12:55:54;;;;;;;;;;;21.80;99.90;;;;;;5060827;28;19967;-84
2021/09/06 12:58:20;;;;;;;;;;;21.70;99.90;;;;;;5059478;28;19992;-82
2021/09/06 13:00:46;;;;;;;;;;;21.70;99.90;;;;;;5080353;28;19942;-84
2021/09/06 13:03:11;;;;;;;;;;;21.80;99.90;;;;;;5087059;28;20066;-84
2021/09/06 13:05:37;;;;;;;;;;;21.80;99.90;;;;;;5073352;28;19927;-79
2021/09/06 13:08:03;;;;;;;;;;;21.90;99.90;;;;;;5090344;28;19920;-82
2021/09/06 13:10:30;;;;;;;;;;;21.90;99.90;;;;;;5087466;28;19984;-82
2021/09/06 13:12:56;;;;;;;;;;;22.00;99.90;;;;;;5086107;28;19931;-76
2021/09/06 13:15:22;;;;;;;;;;;22.10;99.90;;;;;;5086901;28;19916;-76
2021/09/06 13:17:47;;;;;;;;;;;22.10;99.90;;;;;;5093103;28;20007;-76
2021/09/06 13:20:13;;;;;;;;;;;22.10;99.90;;;;;;5093310;28;19912;-85
2021/09/06 13:22:40;;;;;;;;;;;22.20;99.90;;;;;;5072912;28;20226;-85
2021/09/06 13:25:09;;;;;;;;;;;22.20;99.90;;;;;;5093998;28;20370;-84
2021/09/06 13:27:34;;;;;;;;;;;22.10;99.90;;;;;;5093755;28;20335;-83
2021/09/06 13:30:01;;;;;;;;;;;22.10;99.90;;;;;;5093193;28;19915;-85
2021/09/06 13:32:27;;;;;;;;;;;22.10;99.90;;;;;;5092116;28;19920;-81
2021/09/06 13:34:52;;;;;;;;;;;22.10;99.90;;;;;;5072219;28;19916;-85
2021/09/06 13:37:19;;;;;;;;;;;22.10;99.90;;;;;;5094263;28;19913;-82
2021/09/06 13:39:44;;;;;;;;;;;22.20;99.90;;;;;;5080598;28;20222;-85
2021/09/06 13:42:10;;;;;;;;;;;22.10;99.90;;;;;;5091749;28;19916;-85
2021/09/06 13:44:35;;;;;;;;;;;22.00;99.90;;;;;;5077593;28;19995;-84
2021/09/06 13:47:01;;;;;;;;;;;21.90;99.90;;;;;;5091254;28;19912;-86
2021/09/06 13:49:26;;;;;;;;;;;21.80;99.90;;;;;;5075585;28;19978;-84
2021/09/06 13:51:52;;;;;;;;;;;21.70;99.90;;;;;;5093555;28;19912;-84
2021/09/06 13:54:18;;;;;;;;;;;21.60;99.90;;;;;;5075438;28;19923;-83
2021/09/06 13:56:44;;;;;;;;;;;21.60;99.90;;;;;;5077656;28;20257;-84
2021/09/06 13:59:10;;;;;;;;;;;21.50;99.90;;;;;;5090101;28;19912;-77
2021/09/06 14:01:35;;;;;;;;;;;21.50;99.90;;;;;;5075124;28;19931;-81
2021/09/06 14:04:01;;;;;;;;;;;21.50;99.90;;;;;;5092595;28;19918;-85
2021/09/06 14:06:28;;;;;;;;;;;21.50;99.90;;;;;;5085164;28;19924;-83
2021/09/06 14:08:53;;;;;;;;;;;21.60;99.90;;;;;;5072585;28;19931;-84
2021/09/06 14:11:19;;;;;;;;;;;21.60;99.90;;;;;;5076719;28;20027;-81